Time;durP1;ratioP1;P1;durP2;ratioP2;P2;SDS_P1;SDS_P2;PMS_P1;PMS_P2;Temp;Humidity;BMP_temperature;BMP_pressure;BME280_temperature;BME280_humidity;BME280_pressure;Samples;Min_cycle;Max_cycle;Signal;HPM_P1;HPM_P2
2023/03/05 00:01:21;;;;;;;9.30;4.03;;;3.30;99.90;;;2.26;83.73;101225.97;5053247;28;20198;-71
2023/03/05 00:03:55;;;;;;;9.73;3.80;;;3.20;99.90;;;2.28;83.41;101224.13;5055938;28;20375;-71
2023/03/05 00:06:29;;;;;;;13.43;3.83;;;3.20;99.90;;;2.26;84.57;101220.69;5056872;28;20210;-71
2023/03/05 00:09:02;;;;;;;11.47;3.93;;;3.30;99.90;;;2.20;84.02;101225.50;5056870;28;20643;-71
2023/03/05 00:11:34;;;;;;;11.50;4.27;;;3.20;99.90;;;2.23;84.18;101220.91;5057155;28;20214;-71
2023/03/05 00:14:09;;;;;;;11.07;4.07;;;3.20;99.90;;;2.23;84.10;101220.03;5056621;28;20229;-71
2023/03/05 00:16:42;;;;;;;10.53;4.80;;;3.20;99.90;;;2.20;84.46;101218.44;5057073;28;20196;-71
2023/03/05 00:19:15;;;;;;;16.53;6.13;;;3.20;99.90;;;2.18;84.30;101211.56;5056656;28;20202;-71
2023/03/05 00:21:46;;;;;;;13.23;5.10;;;3.20;99.90;;;2.21;84.01;101212.22;5056973;28;20190;-71
2023/03/05 00:24:22;;;;;;;15.13;6.40;;;3.20;99.90;;;2.24;84.28;101201.47;5056868;28;20233;-71
2023/03/05 00:26:54;;;;;;;13.90;5.70;;;3.20;99.90;;;2.25;84.22;101203.19;5056796;28;20221;-71
2023/03/05 00:29:26;;;;;;;13.10;4.93;;;3.20;99.90;;;2.23;83.76;101188.34;5056872;28;20190;-71
2023/03/05 00:32:01;;;;;;;10.27;4.80;;;3.20;99.90;;;2.30;84.00;101194.94;5056845;28;20248;-71
2023/03/05 00:34:33;;;;;;;11.87;4.40;;;3.30;99.90;;;2.29;82.86;101194.13;5056731;28;20226;-71
2023/03/05 00:37:05;;;;;;;11.73;4.80;;;3.30;99.90;;;2.30;83.20;101189.66;5056418;28;20635;-71
2023/03/05 00:39:38;;;;;;;12.27;4.03;;;3.30;99.90;;;2.29;83.92;101191.47;5057228;28;20190;-71
2023/03/05 00:42:10;;;;;;;16.67;6.17;;;3.30;99.90;;;2.22;83.43;101187.53;5056652;28;20236;-71
2023/03/05 00:44:42;;;;;;;14.73;6.47;;;3.20;99.90;;;2.21;83.16;101175.25;5056575;28;20593;-71
2023/03/05 00:47:17;;;;;;;16.77;6.53;;;3.20;99.90;;;2.23;83.27;101178.63;5056170;28;20212;-71
2023/03/05 00:49:49;;;;;;;16.93;6.80;;;3.20;99.90;;;2.27;83.55;101180.13;5056295;28;20533;-71
2023/03/05 00:52:21;;;;;;;12.13;4.20;;;3.20;99.90;;;2.23;83.05;101181.25;5056152;28;20197;-71
2023/03/05 00:54:54;;;;;;;8.27;3.80;;;3.20;99.90;;;2.21;82.99;101169.97;5056332;28;20190;-71
2023/03/05 00:57:26;;;;;;;7.83;4.03;;;3.20;99.90;;;2.17;83.01;101171.09;5056346;28;20182;-71
2023/03/05 00:59:58;;;;;;;16.80;5.77;;;3.20;99.90;;;2.15;82.85;101162.44;5056279;28;20191;-71
2023/03/05 01:02:30;;;;;;;10.70;3.70;;;3.20;99.90;;;2.22;82.63;101161.09;5056098;28;20191;-72
2023/03/05 01:05:04;;;;;;;8.67;3.70;;;3.20;99.90;;;2.22;82.88;101154.97;5055878;28;20561;-71
2023/03/05 01:07:38;;;;;;;11.57;3.37;;;3.20;99.90;;;2.04;82.91;101147.25;5056183;28;20187;-71
2023/03/05 01:10:13;;;;;;;11.53;3.30;;;3.10;99.90;;;2.03;83.45;101155.25;5056096;28;20198;-71
2023/03/05 01:12:45;;;;;;;9.13;3.00;;;3.00;99.90;;;2.07;82.95;101156.78;5055664;28;20193;-71
2023/03/05 01:15:16;;;;;;;14.53;3.47;;;3.10;99.90;;;2.14;82.21;101152.81;5055200;28;20209;-71
2023/03/05 01:17:48;;;;;;;11.90;3.30;;;3.20;99.90;;;2.12;82.95;101145.94;5055938;28;20195;-71
2023/03/05 01:20:23;;;;;;;9.17;3.03;;;3.10;99.90;;;2.07;83.26;101140.94;5055603;28;20194;-71
2023/03/05 01:22:57;;;;;;;11.90;3.30;;;3.10;99.90;;;2.02;83.94;101130.63;5055780;28;20228;-71
2023/03/05 01:25:30;;;;;;;11.57;3.40;;;3.00;99.90;;;2.03;83.35;101134.13;5055706;28;20201;-71
2023/03/05 01:28:02;;;;;;;15.60;3.57;;;3.10;99.90;;;1.95;83.88;101128.50;5055449;28;20191;-71
2023/03/05 01:30:35;;;;;;;9.37;3.27;;;3.00;99.90;;;1.97;84.16;101121.31;5055657;28;20187;-71
2023/03/05 01:33:06;;;;;;;10.53;3.30;;;3.00;99.90;;;1.96;83.81;101116.97;5055145;28;20707;-71
2023/03/05 01:35:38;;;;;;;12.57;4.47;;;3.00;99.90;;;1.97;84.47;101114.25;5055538;28;20190;-71
2023/03/05 01:38:10;;;;;;;15.03;3.70;;;3.00;99.90;;;1.96;84.66;101107.28;5055140;28;20597;-71
2023/03/05 01:40:44;;;;;;;15.17;4.77;;;3.00;99.90;;;1.95;84.54;101110.03;5055414;28;20248;-72
2023/03/05 01:43:28;;;;;;;13.20;4.33;;;3.00;99.90;;;2.03;83.94;101091.88;5054954;28;20595;-71
2023/03/05 01:46:34;;;;;;;8.57;4.03;;;3.00;99.90;;;2.03;84.16;101094.53;5055328;28;20215;-71
2023/03/05 01:49:29;;;;;;;10.87;4.30;;;3.00;99.90;;;2.05;84.25;101095.28;4974145;28;20200;-72
2023/03/05 01:52:06;;;;;;;12.23;3.80;;;3.00;99.90;;;2.03;84.61;101091.88;5050979;28;20213;-71
2023/03/05 01:54:43;;;;;;;8.60;3.97;;;3.00;99.90;;;2.04;84.24;101093.59;5055022;28;20229;-71
2023/03/05 01:57:25;;;;;;;14.80;5.00;;;3.10;99.90;;;2.03;84.03;101081.31;5055167;28;20183;-71
2023/03/05 02:00:05;;;;;;;13.47;5.77;;;3.00;99.90;;;2.04;84.25;101081.25;5055169;28;20221;-71
2023/03/05 02:02:37;;;;;;;13.97;4.97;;;3.10;99.90;;;2.02;84.02;101084.94;5055044;28;20247;-71
2023/03/05 02:05:16;;;;;;;14.27;4.70;;;3.00;99.90;;;1.99;84.72;101085.94;5055081;28;20194;-71
2023/03/05 02:07:48;;;;;;;16.03;5.03;;;3.00;99.90;;;2.01;84.61;101080.59;5054581;28;20206;-71
2023/03/05 02:10:23;;;;;;;12.67;4.60;;;3.00;99.90;;;2.04;84.42;101075.94;5054908;28;20194;-71
2023/03/05 02:13:00;;;;;;;15.00;5.20;;;3.10;99.90;;;1.99;84.81;101071.88;5055150;28;20229;-71
2023/03/05 02:15:34;;;;;;;15.93;5.30;;;3.00;99.90;;;2.03;84.55;101065.47;5054429;28;20214;-71
2023/03/05 02:18:08;;;;;;;14.90;5.27;;;3.10;99.90;;;1.99;84.73;101069.25;5054692;28;20186;-71
2023/03/05 02:20:50;;;;;;;13.33;4.23;;;3.00;99.90;;;1.99;84.77;101067.47;5054350;28;20559;-71
2023/03/05 02:23:26;;;;;;;9.10;3.93;;;3.00;99.90;;;2.01;84.63;101064.75;5054531;28;20237;-71
2023/03/05 02:25:59;;;;;;;14.40;5.20;;;3.00;99.90;;;2.01;84.61;101056.81;5053610;28;20194;-71
2023/03/05 02:28:36;;;;;;;15.77;5.87;;;3.00;99.90;;;1.98;85.15;101054.38;5054190;28;20568;-71
2023/03/05 02:31:17;;;;;;;16.37;5.43;;;3.00;99.90;;;1.99;84.84;101048.97;5054906;28;20190;-71
2023/03/05 02:33:51;;;;;;;14.47;5.40;;;3.00;99.90;;;2.00;84.64;101049.84;5053964;28;20689;-71
2023/03/05 02:36:24;;;;;;;13.70;5.63;;;3.00;99.90;;;1.98;84.68;101046.44;5053999;28;20219;-71
2023/03/05 02:38:58;;;;;;;18.23;5.70;;;3.00;99.90;;;2.03;85.23;101044.34;5053962;28;20194;-71
2023/03/05 02:41:29;;;;;;;15.30;4.97;;;3.00;99.90;;;2.02;85.23;101038.22;5054294;28;20286;-71
2023/03/05 02:44:01;;;;;;;14.53;4.97;;;3.00;99.90;;;2.04;85.06;101048.69;5053777;28;20721;-71
2023/03/05 02:46:33;;;;;;;12.07;5.17;;;3.00;99.90;;;2.01;85.32;101047.09;5054137;28;20214;-71
2023/03/05 02:49:05;;;;;;;15.03;5.57;;;3.10;99.90;;;2.06;85.31;101038.88;5054093;28;20248;-71
2023/03/05 02:51:37;;;;;;;16.53;6.37;;;3.10;99.90;;;2.03;85.90;101041.72;5053737;28;20589;-71
2023/03/05 02:54:10;;;;;;;12.57;5.77;;;3.10;99.90;;;2.02;86.61;101037.41;5053920;28;20317;-71
2023/03/05 02:56:42;;;;;;;14.27;5.80;;;3.00;99.90;;;1.94;86.87;101034.38;5053657;28;20186;-71
2023/03/05 02:59:14;;;;;;;15.60;5.47;;;3.00;99.90;;;1.95;87.06;101030.81;5053936;28;20194;-71
2023/03/05 03:01:45;;;;;;;13.80;5.07;;;3.00;99.90;;;1.93;87.10;101025.63;5053888;28;20255;-71
2023/03/05 03:04:17;;;;;;;15.23;5.10;;;2.90;99.90;;;1.93;86.92;101016.84;5053753;28;20265;-71
2023/03/05 03:06:49;;;;;;;12.80;5.00;;;3.00;99.90;;;1.99;86.84;101011.16;5053721;28;20237;-71
2023/03/05 03:09:22;;;;;;;15.07;5.37;;;3.00;99.90;;;2.01;86.69;101011.94;5053417;28;20607;-71
2023/03/05 03:11:54;;;;;;;14.93;6.70;;;3.10;99.90;;;1.95;86.58;101009.69;5053731;28;20613;-71
2023/03/05 03:14:26;;;;;;;19.20;6.67;;;3.00;99.90;;;1.95;87.04;101005.22;5053440;28;20234;-71
2023/03/05 03:16:58;;;;;;;17.80;6.80;;;3.00;99.90;;;1.93;87.48;101014.19;5053554;28;20215;-71
2023/03/05 03:19:30;;;;;;;14.93;7.40;;;2.90;99.90;;;1.90;87.73;101006.47;5053626;28;20248;-71
2023/03/05 03:22:02;;;;;;;14.57;7.43;;;2.90;99.90;;;1.95;87.78;101004.41;5053551;28;20190;-71
2023/03/05 03:24:36;;;;;;;14.53;6.63;;;3.00;99.90;;;1.89;87.87;101004.78;5053467;28;20230;-71
2023/03/05 03:27:10;;;;;;;13.23;5.83;;;2.90;99.90;;;1.97;87.69;100997.22;5053141;28;20210;-70
2023/03/05 03:29:41;;;;;;;16.53;5.43;;;3.00;99.90;;;1.92;88.10;100996.66;5053553;28;20194;-71
2023/03/05 03:32:13;;;;;;;13.97;5.87;;;3.00;99.90;;;1.87;88.29;100990.84;5053637;28;20244;-71
2023/03/05 03:34:46;;;;;;;14.80;6.60;;;2.90;99.90;;;1.88;88.40;100989.91;5053471;28;20230;-71
2023/03/05 03:37:18;;;;;;;14.87;7.23;;;2.90;99.90;;;1.87;88.53;100985.56;5052995;28;20681;-72
2023/03/05 03:39:51;;;;;;;13.73;7.47;;;2.90;99.90;;;1.91;88.73;100989.72;5053480;28;20201;-70
2023/03/05 03:42:25;;;;;;;18.20;8.03;;;2.90;99.90;;;1.88;89.41;100987.25;5053465;28;20194;-71
2023/03/05 03:44:59;;;;;;;20.07;7.60;;;2.90;99.90;;;1.86;88.78;100983.84;5053386;28;20193;-71
2023/03/05 03:47:31;;;;;;;12.80;7.07;;;2.90;99.90;;;1.88;88.91;100972.25;5053021;28;20679;-71
2023/03/05 03:50:03;;;;;;;17.10;8.47;;;2.90;99.90;;;1.84;89.09;100969.91;5053354;28;20206;-71
2023/03/05 03:52:35;;;;;;;13.83;7.57;;;2.90;99.90;;;1.82;88.44;100971.78;5053241;28;20194;-71
2023/03/05 03:55:10;;;;;;;16.60;7.97;;;2.90;99.90;;;1.83;89.24;100968.22;5053044;28;20639;-71
2023/03/05 03:57:42;;;;;;;13.50;6.87;;;2.90;99.90;;;1.79;88.46;100967.56;5054184;28;20185;-71
2023/03/05 04:00:17;;;;;;;10.53;5.93;;;2.90;99.90;;;1.80;88.87;100964.00;5053020;28;20654;-71
2023/03/05 04:02:48;;;;;;;10.13;6.00;;;2.80;99.90;;;1.81;88.57;100955.13;5053169;28;20233;-71
2023/03/05 04:05:20;;;;;;;12.67;5.70;;;2.90;99.90;;;1.75;88.55;100954.66;5053278;28;20236;-71
2023/03/05 04:07:52;;;;;;;9.53;4.67;;;2.80;99.90;;;1.83;88.39;100957.66;5053163;28;20214;-72
2023/03/05 04:10:26;;;;;;;12.23;5.00;;;2.90;99.90;;;1.81;88.43;100956.94;5053272;28;20190;-72
2023/03/05 04:12:57;;;;;;;8.77;4.57;;;2.80;99.90;;;1.82;88.37;100955.97;5053128;28;20233;-72
2023/03/05 04:15:29;;;;;;;11.67;4.30;;;2.80;99.90;;;1.80;88.32;100958.72;5052864;28;20214;-71
2023/03/05 04:18:01;;;;;;;8.57;4.53;;;2.80;99.90;;;1.78;88.09;100943.94;5053175;28;20191;-71
2023/03/05 04:20:33;;;;;;;6.70;4.03;;;2.80;99.90;;;1.81;88.23;100951.66;5053121;28;20186;-71
2023/03/05 04:23:05;;;;;;;9.53;5.17;;;2.90;99.90;;;1.84;87.79;100948.81;5053003;28;20222;-71
2023/03/05 04:25:38;;;;;;;10.03;4.20;;;2.90;99.90;;;1.88;87.25;100948.47;5052763;28;20536;-71
2023/03/05 04:28:10;;;;;;;11.00;4.27;;;2.90;99.90;;;1.92;87.40;100946.50;5052616;28;20616;-71
2023/03/05 04:30:42;;;;;;;8.50;3.83;;;2.90;99.90;;;1.87;87.19;100944.16;5053046;28;20191;-71
2023/03/05 04:33:14;;;;;;;8.97;4.20;;;2.90;99.90;;;1.83;87.85;100941.81;5052893;28;20226;-71
2023/03/05 04:35:46;;;;;;;16.03;4.80;;;2.90;99.90;;;1.85;87.54;100942.59;5052936;28;20201;-71
2023/03/05 04:38:18;;;;;;;11.00;4.57;;;2.90;99.90;;;1.82;87.51;100934.84;5052904;28;20209;-71
2023/03/05 04:40:51;;;;;;;11.37;5.10;;;2.90;99.90;;;1.82;87.74;100940.13;5052967;28;20190;-71
2023/03/05 04:43:23;;;;;;;9.70;4.47;;;2.90;99.90;;;1.82;87.81;100930.41;5052839;28;20232;-71
2023/03/05 04:45:56;;;;;;;9.27;4.47;;;2.90;99.90;;;1.86;87.80;100929.28;5052950;28;20190;-71
2023/03/05 04:48:28;;;;;;;13.07;5.10;;;2.90;99.90;;;1.77;88.11;100921.13;5053272;28;20210;-71
2023/03/05 04:51:00;;;;;;;9.03;5.47;;;2.80;99.90;;;1.81;87.94;100922.63;5056531;28;20190;-71
2023/03/05 04:53:32;;;;;;;7.20;4.80;;;2.80;99.90;;;1.83;87.91;100916.28;5056481;28;20234;-71
2023/03/05 04:56:05;;;;;;;12.37;5.30;;;2.90;99.90;;;1.80;87.49;100915.63;5056385;28;20194;-71
2023/03/05 04:58:37;;;;;;;9.23;5.30;;;2.80;99.90;;;1.79;87.75;100922.69;5056053;28;20236;-71
2023/03/05 05:01:09;;;;;;;11.77;4.97;;;2.80;99.90;;;1.80;87.57;100911.19;5056275;28;20201;-71
2023/03/05 05:03:41;;;;;;;8.90;5.00;;;2.80;99.90;;;1.77;87.25;100918.47;5056164;28;20226;-71
2023/03/05 05:06:13;;;;;;;8.07;5.00;;;2.80;99.90;;;1.77;87.38;100918.47;5056183;28;20195;-71
2023/03/05 05:08:45;;;;;;;11.77;4.87;;;2.80;99.90;;;1.77;87.14;100910.56;5056121;28;20210;-71
2023/03/05 05:11:19;;;;;;;7.83;4.40;;;2.80;99.90;;;1.76;87.30;100909.69;5055805;28;20666;-71
2023/03/05 05:13:50;;;;;;;6.27;3.80;;;2.80;99.90;;;1.80;87.09;100903.28;5055760;28;20276;-71
2023/03/05 05:16:22;;;;;;;8.97;4.40;;;2.80;99.90;;;1.77;87.32;100907.91;5055623;28;20218;-70
2023/03/05 05:18:54;;;;;;;10.70;4.10;;;2.80;99.90;;;1.75;86.80;100902.72;5055956;28;20187;-71
2023/03/05 05:21:26;;;;;;;7.80;3.80;;;2.80;99.90;;;1.76;87.25;100907.06;5055610;28;20198;-71
2023/03/05 05:23:58;;;;;;;7.73;4.10;;;2.80;99.90;;;1.78;86.89;100901.69;5055746;28;20229;-71
2023/03/05 05:26:32;;;;;;;7.77;4.30;;;2.80;99.90;;;1.82;86.97;100903.16;5055466;28;20639;-71
2023/03/05 05:29:04;;;;;;;9.63;3.97;;;2.90;99.90;;;1.81;86.59;100897.06;5055676;28;20268;-71
2023/03/05 05:31:36;;;;;;;8.90;3.80;;;2.90;99.90;;;1.84;86.75;100896.00;5055750;28;20232;-71
2023/03/05 05:34:08;;;;;;;8.33;3.67;;;2.90;99.90;;;1.83;86.68;100900.44;5055577;28;20225;-71
2023/03/05 05:36:39;;;;;;;8.00;4.33;;;2.90;99.90;;;1.82;86.65;100897.88;5055641;28;20217;-71
2023/03/05 05:39:11;;;;;;;9.47;4.00;;;2.90;99.90;;;1.80;86.71;100899.78;5055564;28;20190;-71
2023/03/05 05:41:44;;;;;;;8.10;4.70;;;2.80;99.90;;;1.81;86.69;100896.22;5055266;28;20647;-72
2023/03/05 05:44:16;;;;;;;7.70;5.40;;;2.90;99.90;;;1.81;87.12;100896.22;5055453;28;20230;-71
2023/03/05 05:46:48;;;;;;;11.63;5.93;;;2.80;99.90;;;1.78;86.97;100896.41;5055474;28;20194;-71
2023/03/05 05:49:20;;;;;;;9.27;5.10;;;2.80;99.90;;;1.78;86.94;100896.41;5055302;28;20210;-71
2023/03/05 05:51:52;;;;;;;17.27;5.97;;;2.80;99.90;;;1.75;87.16;100896.59;5055308;28;20194;-71
2023/03/05 05:54:24;;;;;;;9.77;5.00;;;2.80;99.90;;;1.77;86.91;100889.44;5055251;28;20230;-72
2023/03/05 05:56:57;;;;;;;11.43;4.73;;;2.80;99.90;;;1.77;86.83;100889.44;5055294;28;20229;-71
2023/03/05 05:59:29;;;;;;;12.50;5.13;;;2.80;99.90;;;1.75;86.90;100884.25;5055193;28;20217;-71
2023/03/05 06:02:01;;;;;;;12.13;5.03;;;2.80;99.90;;;1.76;86.99;100887.72;5054828;28;20646;-71
2023/03/05 06:04:33;;;;;;;13.13;5.93;;;2.80;99.90;;;1.74;87.35;100889.66;5054914;28;20230;-71
2023/03/05 06:07:06;;;;;;;12.57;5.93;;;2.80;99.90;;;1.76;86.71;100882.47;5054854;28;20187;-71
2023/03/05 06:09:39;;;;;;;9.67;6.47;;;2.80;99.90;;;1.77;87.12;100886.78;5054776;28;20210;-71
2023/03/05 06:12:12;;;;;;;9.03;6.07;;;2.80;99.90;;;1.78;87.07;100877.94;5055359;28;20194;-71
2023/03/05 06:14:44;;;;;;;11.20;6.67;;;2.80;99.90;;;1.80;87.14;100883.94;5054494;28;20241;-71
2023/03/05 06:17:16;;;;;;;12.33;7.20;;;2.80;99.90;;;1.81;86.73;100885.66;5054694;28;20197;-71
2023/03/05 06:20:00;;;;;;;14.80;7.37;;;2.90;99.90;;;1.85;86.61;100881.88;5054635;28;20288;-71
2023/03/05 06:22:35;;;;;;;12.47;7.47;;;2.90;99.90;;;1.82;87.02;100890.81;5054503;28;20190;-71
2023/03/05 06:25:08;;;;;;;12.13;7.00;;;2.90;99.90;;;1.83;87.01;100884.59;5054601;28;20189;-71
2023/03/05 06:27:41;;;;;;;11.80;6.57;;;2.80;99.90;;;1.84;86.65;100883.66;5054209;28;20642;-71
2023/03/05 06:30:15;;;;;;;14.50;7.30;;;2.90;99.90;;;1.80;87.16;100879.53;5054430;28;20260;-70
2023/03/05 06:32:47;;;;;;;12.17;7.60;;;2.80;99.90;;;1.81;87.16;100885.66;5054052;28;20643;-71
2023/03/05 06:35:20;;;;;;;13.93;8.30;;;2.80;99.90;;;1.81;87.21;100881.22;5054326;28;20197;-71
2023/03/05 06:37:52;;;;;;;15.37;7.97;;;2.90;99.90;;;1.84;87.35;100877.53;5053994;28;20190;-71
2023/03/05 06:40:24;;;;;;;13.57;8.23;;;2.80;99.90;;;1.85;87.22;100881.88;5053972;28;20666;-71
2023/03/05 06:42:57;;;;;;;17.60;8.23;;;2.90;99.90;;;1.82;86.75;100879.41;5054168;28;20230;-71
2023/03/05 06:45:29;;;;;;;11.20;7.43;;;2.80;99.90;;;1.83;87.11;100883.75;5054120;28;20197;-71
2023/03/05 06:48:01;;;;;;;15.10;7.43;;;2.90;99.90;;;1.88;87.30;100881.66;5054136;28;20199;-71
2023/03/05 06:50:36;;;;;;;12.20;6.73;;;2.90;99.90;;;1.86;86.86;100880.91;5055116;28;20198;-71
2023/03/05 06:53:08;;;;;;;12.87;6.60;;;2.90;99.90;;;1.89;87.04;100878.06;5053948;28;20230;-71
2023/03/05 06:55:40;;;;;;;8.97;6.27;;;2.90;99.90;;;1.95;86.80;100882.94;5053944;28;20201;-71
2023/03/05 06:58:14;;;;;;;11.33;6.23;;;3.00;99.90;;;1.90;86.62;100879.75;5053927;28;20198;-71
2023/03/05 07:00:46;;;;;;;14.93;6.30;;;2.90;99.90;;;1.88;87.03;100873.75;5053908;28;20190;-71
2023/03/05 07:03:17;;;;;;;15.43;6.70;;;2.90;99.90;;;1.91;87.09;100871.75;5053770;28;20249;-71
2023/03/05 07:05:49;;;;;;;8.57;5.13;;;3.00;99.90;;;1.93;87.43;100872.47;5053419;28;20194;-71
2023/03/05 07:08:21;;;;;;;9.53;4.70;;;2.90;99.90;;;1.96;87.03;100881.97;5053708;28;20186;-71
2023/03/05 07:10:53;;;;;;;8.67;4.97;;;3.00;99.90;;;1.96;86.67;100880.19;5053369;28;20186;-71
2023/03/05 07:13:26;;;;;;;9.13;4.47;;;3.00;99.90;;;1.92;87.07;100872.56;5053027;28;20718;-71
2023/03/05 07:15:58;;;;;;;14.03;4.20;;;3.00;99.90;;;1.96;87.04;100872.28;5053301;28;20222;-71
2023/03/05 07:18:30;;;;;;;10.90;3.97;;;3.00;99.90;;;1.97;86.86;100868.69;5053769;28;20232;-71
2023/03/05 07:21:06;;;;;;;9.87;4.03;;;3.00;99.90;;;1.96;86.67;100864.34;5053686;28;20202;-71
2023/03/05 07:23:38;;;;;;;11.13;3.77;;;3.00;99.90;;;1.98;87.30;100869.53;5053269;28;20221;-71
2023/03/05 07:26:13;;;;;;;8.50;4.03;;;3.00;99.90;;;2.01;86.78;100864.91;5053577;28;20190;-71
2023/03/05 07:28:47;;;;;;;10.83;3.90;;;3.10;99.90;;;2.01;86.91;100854.34;5053579;28;20212;-71
2023/03/05 07:31:25;;;;;;;10.10;4.00;;;3.00;99.90;;;2.05;86.54;100855.78;5053304;28;20757;-71
2023/03/05 07:33:58;;;;;;;8.03;3.70;;;3.10;99.90;;;2.08;86.27;100849.50;5053206;28;20226;-71
2023/03/05 07:36:33;;;;;;;7.47;3.47;;;3.10;99.90;;;2.14;86.02;100858.78;5053193;28;20549;-71
2023/03/05 07:39:06;;;;;;;5.70;3.23;;;3.20;99.90;;;2.18;85.91;100853.19;5054090;28;20182;-71
2023/03/05 07:41:38;;;;;;;7.40;3.60;;;3.20;99.90;;;2.20;85.76;100855.72;5053501;28;20198;-71
2023/03/05 07:44:11;;;;;;;7.20;3.80;;;3.20;99.90;;;2.18;85.77;100850.56;5053038;28;20602;-71
2023/03/05 07:46:43;;;;;;;8.13;3.80;;;3.20;99.90;;;2.17;85.73;100851.50;5053098;28;20697;-71
2023/03/05 07:49:15;;;;;;;6.87;3.53;;;3.20;99.90;;;2.15;85.92;100848.13;5053071;28;20556;-71
2023/03/05 07:51:47;;;;;;;10.07;3.50;;;3.20;99.90;;;2.26;86.61;100850.03;5053446;28;20199;-71
2023/03/05 07:54:19;;;;;;;9.10;3.53;;;3.30;99.90;;;2.28;85.60;100848.97;5053313;28;20241;-71
2023/03/05 07:56:51;;;;;;;10.00;3.43;;;3.30;99.90;;;2.29;86.04;100853.31;5053358;28;20197;-71
2023/03/05 07:59:24;;;;;;;9.30;3.73;;;3.30;99.90;;;2.21;87.18;100852.97;5053303;28;20187;-71
2023/03/05 08:01:56;;;;;;;7.37;4.00;;;3.20;99.90;;;2.23;87.50;100845.78;5053297;28;20277;-71
2023/03/05 08:04:30;;;;;;;7.37;3.50;;;3.20;99.90;;;2.24;87.62;100846.63;5053198;28;20233;-71
2023/03/05 08:07:02;;;;;;;8.57;3.90;;;3.30;99.90;;;2.25;88.29;100845.69;5053242;28;20284;-71
2023/03/05 08:09:34;;;;;;;10.70;4.10;;;3.30;99.90;;;2.15;88.68;100837.56;5053169;28;20237;-71
2023/03/05 08:12:06;;;;;;;7.03;3.77;;;3.20;99.90;;;2.03;89.06;100848.94;5053116;28;20244;-71
2023/03/05 08:14:39;;;;;;;9.50;4.13;;;3.10;99.90;;;2.01;88.99;100846.41;5052983;28;20238;-71
2023/03/05 08:17:11;;;;;;;10.63;3.60;;;3.10;99.90;;;2.06;88.60;100848.72;5053160;28;20190;-71
2023/03/05 08:19:43;;;;;;;7.67;3.47;;;3.00;99.90;;;2.09;88.73;100832.66;5053138;28;20194;-71
2023/03/05 08:22:16;;;;;;;5.93;3.13;;;3.10;99.90;;;2.09;88.09;100843.22;5052803;28;20536;-70
2023/03/05 08:24:49;;;;;;;9.97;3.57;;;3.10;99.90;;;2.12;87.88;100837.78;5055512;28;20226;-71
2023/03/05 08:27:20;;;;;;;6.40;4.10;;;3.20;99.90;;;2.15;88.00;100834.91;5056952;28;20597;-71
2023/03/05 08:29:53;;;;;;;7.40;3.87;;;3.20;99.90;;;2.22;88.41;100835.34;5056823;28;20210;-73
2023/03/05 08:32:25;;;;;;;11.10;4.10;;;3.20;99.90;;;2.21;87.23;100831.84;5056900;28;20588;-73
2023/03/05 08:35:01;;;;;;;6.13;3.67;;;3.20;99.90;;;2.31;87.90;100835.56;5056851;28;20240;-73
2023/03/05 08:37:34;;;;;;;5.77;3.70;;;3.20;99.90;;;2.33;86.97;100835.47;5056760;28;20194;-73
2023/03/05 08:40:07;;;;;;;7.00;3.40;;;3.30;99.90;;;2.32;86.84;100829.31;5056342;28;20190;-74
2023/03/05 08:42:39;;;;;;;7.80;4.20;;;3.30;99.90;;;2.36;87.27;100830.78;5056342;28;20216;-73
2023/03/05 08:45:15;;;;;;;7.43;3.43;;;3.40;99.90;;;2.35;86.11;100826.47;5056356;28;20666;-74
2023/03/05 08:47:46;;;;;;;7.63;3.47;;;3.40;99.90;;;2.37;85.79;100823.72;5056604;28;20200;-74
2023/03/05 08:50:21;;;;;;;7.63;3.90;;;3.40;99.90;;;2.38;86.01;100822.75;5056524;28;20210;-74
2023/03/05 08:52:54;;;;;;;4.50;3.20;;;3.40;99.90;;;2.39;85.01;100827.97;5056319;28;20229;-72
2023/03/05 08:55:28;;;;;;;7.30;3.47;;;3.40;99.90;;;2.44;86.05;100828.47;5056605;28;20274;-73
2023/03/05 08:58:00;;;;;;;7.37;3.47;;;3.40;99.90;;;2.46;85.03;100823.94;5056651;28;20191;-74
2023/03/05 09:00:33;;;;;;;8.03;3.40;;;3.50;99.90;;;2.48;85.48;100827.31;5056369;28;20194;-74
2023/03/05 09:03:06;;;;;;;6.60;3.30;;;3.50;99.90;;;2.47;85.02;100814.19;5055952;28;20230;-73
2023/03/05 09:05:39;;;;;;;5.57;3.60;;;3.50;99.90;;;2.49;84.61;100828.16;5056269;28;20186;-73
2023/03/05 09:08:12;;;;;;;7.27;3.50;;;3.50;99.90;;;2.47;84.12;100825.59;5055961;28;20191;-74
2023/03/05 09:10:45;;;;;;;9.43;3.53;;;3.50;99.90;;;2.54;82.47;100824.22;5056124;28;20210;-74
2023/03/05 09:13:19;;;;;;;7.63;2.90;;;3.50;99.90;;;2.62;82.35;100831.63;5056095;28;20229;-73
2023/03/05 09:16:00;;;;;;;5.20;3.00;;;3.60;99.90;;;2.67;82.39;100823.38;5055709;28;20226;-74
2023/03/05 09:18:35;;;;;;;6.13;3.83;;;3.70;99.90;;;2.71;80.97;100823.03;5055929;28;20209;-74
2023/03/05 09:21:10;;;;;;;5.73;3.10;;;3.70;99.90;;;2.64;80.82;100818.31;5055972;28;20190;-74
2023/03/05 09:23:43;;;;;;;6.37;3.00;;;3.60;99.90;;;2.65;81.48;100822.63;5055960;28;20230;-73
2023/03/05 09:26:18;;;;;;;5.10;2.80;;;3.70;99.90;;;2.67;80.81;100818.09;5055871;28;20194;-74
2023/03/05 09:28:50;;;;;;;7.07;3.23;;;3.60;99.90;;;2.72;80.11;100808.88;5055864;28;20561;-74
2023/03/05 09:31:23;;;;;;;5.13;2.70;;;3.70;99.90;;;2.72;80.30;100818.59;5055701;28;20215;-74
2023/03/05 09:33:55;;;;;;;7.87;3.50;;;3.70;99.90;;;2.72;80.30;100806.22;5055722;28;20284;-73
2023/03/05 09:36:30;;;;;;;3.00;2.43;;;3.80;99.90;;;2.75;80.57;100806.00;5055378;28;20195;-74
2023/03/05 09:39:05;;;;;;;4.40;2.87;;;3.80;99.90;;;2.80;80.08;100809.19;5055333;28;20635;-74
2023/03/05 09:41:54;;;;;;;5.23;2.50;;;3.80;99.90;;;2.81;79.91;100810.03;5055617;28;20193;-73
2023/03/05 09:44:36;;;;;;;8.03;2.80;;;3.80;99.90;;;2.89;79.12;100803.22;5055396;28;20238;-73
2023/03/05 09:47:26;;;;;;;5.63;3.13;;;3.90;99.90;;;2.89;79.65;100791.81;5055516;28;20198;-74
2023/03/05 09:50:10;;;;;;;5.67;2.97;;;3.90;99.90;;;2.96;79.97;100798.34;5055624;28;20218;-73
2023/03/05 09:52:51;;;;;;;5.20;3.10;;;4.00;99.90;;;3.06;79.94;100797.56;5055436;28;20194;-73
2023/03/05 09:55:33;;;;;;;9.40;3.80;;;4.00;99.90;;;2.99;79.66;100798.13;5055338;28;20545;-74
2023/03/05 09:58:14;;;;;;;4.23;3.60;;;4.00;99.90;;;3.02;81.28;100793.47;5055340;28;20209;-73
2023/03/05 10:00:54;;;;;;;5.23;3.20;;;4.00;99.90;;;3.08;80.80;100797.47;5055040;28;20643;-73
2023/03/05 10:03:39;;;;;;;4.10;2.77;;;4.10;99.90;;;3.10;80.39;100810.56;5055231;28;20241;-73
2023/03/05 10:06:22;;;;;;;5.23;3.50;;;4.10;99.90;;;3.11;80.60;100806.97;5055164;28;20197;-73
2023/03/05 10:09:03;;;;;;;4.60;2.87;;;4.10;99.90;;;3.10;78.83;100802.63;5055122;28;20194;-74
2023/03/05 10:11:45;;;;;;;4.97;2.97;;;4.10;99.90;;;3.10;78.60;100800.00;5054597;28;20213;-75
2023/03/05 10:14:25;;;;;;;4.07;2.50;;;4.10;99.50;;;3.19;79.45;100802.81;5054433;28;20222;-74
2023/03/05 10:17:10;;;;;;;4.33;2.93;;;4.10;99.80;;;3.24;79.81;100797.19;5054842;28;20190;-74
2023/03/05 10:20:11;;;;;;;8.10;3.07;;;4.20;99.90;;;3.35;79.13;100794.63;5054849;28;20197;-74
2023/03/05 10:23:03;;;;;;;4.00;2.70;;;4.30;99.90;;;3.36;79.05;100794.47;5054672;28;20194;-72
2023/03/05 10:25:54;;;;;;;5.37;2.77;;;4.30;99.90;;;3.37;77.89;100792.69;5054400;28;20584;-73
2023/03/05 10:28:34;;;;;;;5.87;2.37;;;4.30;99.30;;;3.40;78.05;100792.47;5054656;28;20285;-74
2023/03/05 10:31:27;;;;;;;5.03;2.60;;;4.40;99.00;;;3.39;77.40;100785.50;5054574;28;20218;-73
2023/03/05 10:34:24;;;;;;;5.63;2.30;;;4.40;98.80;;;3.40;76.57;100782.72;5054470;28;20221;-73
2023/03/05 10:37:20;;;;;;;3.23;2.23;;;4.40;98.70;;;3.54;75.98;100781.69;5054451;28;20213;-73
2023/03/05 10:40:20;;;;;;;3.50;2.40;;;4.50;98.00;;;3.65;75.37;100780.88;5054484;28;20198;-74
2023/03/05 10:43:04;;;;;;;4.57;1.60;;;4.60;97.70;;;3.58;73.08;100765.47;5054358;28;20229;-73
2023/03/05 10:45:43;;;;;;;3.40;2.00;;;4.60;96.20;;;3.60;71.80;100769.81;5054395;28;20197;-74
2023/03/05 10:48:27;;;;;;;7.10;2.07;;;4.60;95.70;;;3.50;73.34;100762.53;5053823;28;20194;-74
2023/03/05 10:51:04;;;;;;;4.23;2.03;;;4.50;96.20;;;3.50;73.10;100762.53;5054126;28;20210;-73
2023/03/05 10:53:55;;;;;;;3.23;1.90;;;4.50;96.20;;;3.56;73.63;100753.31;5053767;28;20736;-73